createdAt,value
2023-05-22T00:00:09.254Z,16.31
2023-05-22T00:03:11.486Z,15.55
2023-05-22T00:06:15.035Z,15.32
2023-05-22T00:09:17.507Z,15.32
2023-05-22T00:12:19.783Z,15.31
2023-05-22T00:15:22.013Z,15.56
2023-05-22T00:18:25.529Z,15.70
2023-05-22T00:21:27.989Z,15.75
2023-05-22T00:24:30.287Z,15.95
2023-05-22T00:27:33.221Z,15.87
2023-05-22T00:30:36.998Z,15.49
2023-05-22T00:33:39.428Z,14.82
2023-05-22T00:36:41.741Z,15.02
2023-05-22T00:39:44.026Z,14.99
2023-05-22T00:42:46.940Z,15.19
2023-05-22T00:45:49.337Z,15.15
2023-05-22T00:48:52.619Z,15.18
2023-05-22T00:51:55.256Z,15.05
2023-05-22T00:54:57.609Z,14.98
2023-05-22T00:58:01.203Z,14.94
2023-05-22T01:01:03.608Z,14.70
2023-05-22T01:04:08.157Z,14.70
2023-05-22T01:07:10.519Z,14.40
2023-05-22T01:10:12.823Z,14.33
2023-05-22T01:13:50.684Z,14.45
2023-05-22T01:17:00.118Z,14.52
2023-05-22T01:20:10.253Z,14.43
2023-05-22T01:23:30.034Z,14.55
2023-05-22T01:26:45.571Z,14.65
2023-05-22T01:30:21.396Z,14.56
2023-05-22T01:33:27.112Z,14.19
2023-05-22T01:36:32.073Z,13.98
2023-05-22T01:39:34.500Z,13.76
2023-05-22T01:42:36.857Z,13.80
2023-05-22T01:45:39.160Z,13.96
2023-05-22T01:48:41.393Z,13.93
2023-05-22T01:51:57.936Z,13.88
2023-05-22T01:55:21.272Z,13.84
2023-05-22T01:58:34.525Z,13.47
2023-05-22T02:01:38.387Z,13.18
2023-05-22T02:04:45.443Z,13.30
2023-05-22T02:07:48.003Z,13.21
2023-05-22T02:10:51.290Z,13.39
2023-05-22T02:13:53.550Z,13.55
2023-05-22T02:16:56.826Z,13.44
2023-05-22T02:19:59.037Z,13.29
2023-05-22T02:23:01.243Z,13.14
2023-05-22T02:26:04.769Z,13.22
2023-05-22T02:29:07.004Z,12.89
2023-05-22T02:32:09.277Z,12.92
2023-05-22T02:35:12.018Z,12.99
2023-05-22T02:38:14.249Z,12.96
2023-05-22T02:41:16.479Z,13.12
2023-05-22T02:44:18.706Z,13.16
2023-05-22T02:47:20.965Z,12.94
2023-05-22T02:50:23.157Z,12.73
2023-05-22T02:53:25.364Z,12.36
2023-05-22T02:56:28.972Z,12.46
2023-05-22T02:59:31.736Z,12.61
2023-05-22T03:02:34.577Z,12.63
2023-05-22T03:05:37.060Z,12.57
2023-05-22T03:08:43.440Z,12.72
2023-05-22T03:11:45.835Z,12.68
2023-05-22T03:14:48.059Z,12.71
2023-05-22T03:17:50.410Z,12.98
2023-05-22T03:20:52.760Z,12.92
2023-05-22T03:23:55.043Z,12.94
2023-05-22T03:26:57.249Z,13.05
2023-05-22T03:29:59.447Z,12.98
2023-05-22T03:33:01.882Z,12.88
2023-05-22T03:36:04.706Z,12.78
2023-05-22T03:39:06.923Z,12.82
2023-05-22T03:42:09.262Z,13.24
2023-05-22T03:45:11.802Z,14.03
2023-05-22T03:48:13.992Z,14.38
2023-05-22T03:51:18.672Z,14.68
2023-05-22T03:54:22.277Z,15.24
2023-05-22T03:57:24.595Z,15.92
2023-05-22T04:00:27.162Z,16.64
2023-05-22T04:03:29.553Z,17.45
2023-05-22T04:06:33.102Z,17.96
2023-05-22T04:09:36.298Z,17.90
2023-05-22T04:12:38.577Z,18.00
2023-05-22T04:15:46.831Z,18.64
2023-05-22T04:18:49.184Z,18.37
2023-05-22T04:21:51.401Z,18.98
2023-05-22T04:24:53.773Z,19.29
2023-05-22T04:27:56.032Z,19.38
2023-05-22T04:30:58.296Z,18.68
2023-05-22T04:34:01.155Z,19.06
2023-05-22T04:37:04.871Z,20.14
2023-05-22T04:40:08.788Z,20.21
2023-05-22T04:43:14.158Z,19.52
2023-05-22T04:46:16.502Z,19.67
2023-05-22T04:49:18.745Z,20.68
2023-05-22T04:52:21.892Z,20.20
2023-05-22T04:55:24.158Z,20.50
2023-05-22T04:58:27.485Z,19.80
2023-05-22T05:01:31.671Z,18.37
2023-05-22T05:04:35.173Z,18.16
2023-05-22T05:07:38.855Z,17.75
2023-05-22T05:10:41.232Z,17.78
2023-05-22T05:13:43.726Z,17.81
2023-05-22T05:16:46.867Z,17.61
2023-05-22T05:19:49.091Z,17.16
2023-05-22T05:22:51.484Z,17.28
2023-05-22T05:25:53.752Z,17.56
2023-05-22T05:28:56.920Z,17.75
2023-05-22T05:31:59.164Z,17.95
2023-05-22T05:35:01.373Z,18.10
2023-05-22T05:38:04.022Z,17.72
2023-05-22T05:41:06.475Z,17.88
2023-05-22T05:44:08.700Z,17.87
2023-05-22T05:47:11.217Z,17.71
2023-05-22T05:50:15.673Z,17.38
2023-05-22T05:53:17.937Z,17.45
2023-05-22T05:56:20.211Z,17.94
2023-05-22T05:59:22.529Z,18.30
2023-05-22T06:02:24.876Z,18.58
2023-05-22T06:05:29.427Z,18.66
2023-05-22T06:08:32.293Z,18.59
2023-05-22T06:11:34.652Z,18.95
2023-05-22T06:14:37.384Z,19.29
2023-05-22T06:17:39.748Z,19.67
2023-05-22T06:20:42.150Z,19.58
2023-05-22T06:23:44.493Z,19.48
2023-05-22T06:26:46.717Z,19.65
2023-05-22T06:29:49.801Z,19.69
2023-05-22T06:32:52.507Z,19.69
2023-05-22T06:35:55.493Z,19.62
2023-05-22T06:38:57.881Z,19.02
2023-05-22T06:42:00.197Z,19.22
2023-05-22T06:45:02.534Z,19.06
2023-05-22T06:48:04.952Z,19.05
2023-05-22T06:51:08.371Z,18.80
2023-05-22T06:54:12.397Z,18.59
2023-05-22T06:57:14.699Z,18.98
2023-05-22T07:03:21.347Z,19.06
2023-05-22T07:06:24.782Z,19.52
2023-05-22T07:09:27.114Z,19.89
2023-05-22T07:12:29.680Z,20.66
2023-05-22T07:15:31.960Z,21.13
2023-05-22T07:18:34.288Z,21.88
2023-05-22T07:21:36.680Z,21.81
2023-05-22T07:24:39.155Z,22.09
2023-05-22T07:27:41.391Z,21.79
2023-05-22T07:30:43.608Z,21.80
2023-05-22T07:33:46.001Z,21.79
2023-05-22T07:36:48.802Z,22.07
2023-05-22T07:39:51.001Z,22.05
2023-05-22T07:42:53.203Z,21.60
2023-05-22T07:45:55.453Z,21.70
2023-05-22T07:48:57.723Z,22.05
2023-05-22T07:51:59.946Z,21.83
2023-05-22T07:55:02.182Z,21.42
2023-05-22T07:58:05.240Z,21.79
2023-05-22T08:01:09.422Z,22.08
2023-05-22T08:04:12.036Z,21.88
2023-05-22T08:07:14.403Z,22.19
2023-05-22T08:10:19.822Z,22.64
2023-05-22T08:13:22.456Z,23.39
2023-05-22T08:16:25.326Z,23.40
2023-05-22T08:19:27.715Z,23.21
2023-05-22T08:22:30.236Z,23.67
2023-05-22T08:25:32.862Z,23.64
2023-05-22T08:28:35.163Z,23.19
2023-05-22T08:31:37.561Z,23.42
2023-05-22T08:34:40.530Z,23.65
2023-05-22T08:37:42.921Z,23.22
2023-05-22T08:40:47.973Z,23.47
2023-05-22T08:43:50.370Z,23.82
2023-05-22T08:46:53.604Z,23.93
2023-05-22T08:49:58.079Z,24.04
2023-05-22T08:53:03.815Z,23.97
2023-05-22T08:56:07.246Z,24.16
2023-05-22T08:59:10.497Z,24.52
2023-05-22T09:02:12.896Z,24.72
2023-05-22T09:05:17.131Z,24.91
2023-05-22T09:08:20.844Z,25.01
2023-05-22T09:11:24.512Z,25.24
2023-05-22T09:14:26.842Z,24.98
2023-05-22T09:17:29.083Z,24.46
2023-05-22T09:20:39.243Z,24.65
2023-05-22T09:23:41.918Z,24.51
2023-05-22T09:26:44.167Z,24.71
2023-05-22T09:29:56.634Z,25.00
2023-05-22T09:32:58.881Z,25.10
2023-05-22T09:36:01.601Z,25.34
2023-05-22T09:39:04.750Z,25.25
2023-05-22T09:42:08.661Z,25.30
2023-05-22T09:45:11.353Z,25.49
2023-05-22T09:48:17.024Z,24.89
2023-05-22T09:51:26.512Z,25.50
2023-05-22T09:54:29.437Z,25.84
2023-05-22T09:57:33.970Z,25.37
2023-05-22T10:00:36.672Z,25.87
2023-05-22T10:03:39.378Z,26.06
2023-05-22T10:06:42.947Z,26.14
2023-05-22T10:09:49.529Z,25.79
2023-05-22T10:13:02.361Z,25.39
2023-05-22T10:16:05.014Z,25.51
2023-05-22T10:19:08.311Z,25.52
2023-05-22T10:22:11.793Z,25.62
2023-05-22T10:25:14.212Z,25.66
2023-05-22T10:28:25.551Z,25.39
2023-05-22T10:31:37.904Z,25.26
2023-05-22T10:34:56.441Z,25.46
2023-05-22T10:38:23.301Z,25.64
2023-05-22T10:41:26.340Z,25.50
2023-05-22T10:44:28.644Z,26.09
2023-05-22T10:47:33.523Z,26.25
2023-05-22T10:50:36.575Z,26.59
2023-05-22T10:53:40.945Z,26.54
2023-05-22T10:56:43.271Z,26.51
2023-05-22T10:59:48.719Z,26.82
2023-05-22T11:02:51.299Z,26.79
2023-05-22T11:05:54.418Z,26.48
2023-05-22T11:08:57.646Z,26.36
2023-05-22T11:12:18.090Z,26.28
2023-05-22T11:15:30.680Z,26.50
2023-05-22T11:18:33.136Z,25.61
2023-05-22T11:21:46.481Z,25.94
2023-05-22T11:24:49.186Z,26.23
2023-05-22T11:27:51.495Z,26.35
2023-05-22T11:30:54.145Z,26.25
2023-05-22T11:33:56.583Z,25.91
2023-05-22T11:37:00.151Z,25.85
2023-05-22T11:40:05.828Z,25.70
2023-05-22T11:43:08.142Z,25.61
2023-05-22T11:46:11.197Z,26.00
2023-05-22T11:49:13.546Z,26.18
2023-05-22T11:52:18.954Z,26.45
2023-05-22T11:55:21.216Z,26.01
2023-05-22T11:58:33.478Z,25.95
2023-05-22T12:01:36.434Z,26.05
2023-05-22T12:04:38.663Z,25.87
2023-05-22T12:07:41.147Z,25.91
2023-05-22T12:10:48.007Z,26.25
2023-05-22T12:14:00.552Z,26.35
2023-05-22T12:17:06.436Z,25.51
2023-05-22T12:20:13.214Z,25.28
2023-05-22T12:23:48.073Z,25.51
2023-05-22T12:26:51.656Z,25.87
2023-05-22T12:29:56.560Z,26.23
2023-05-22T12:32:59.118Z,26.28
2023-05-22T12:36:07.898Z,26.22
2023-05-22T12:39:16.654Z,26.59
2023-05-22T12:42:18.831Z,26.66
2023-05-22T12:45:21.072Z,26.06
2023-05-22T12:48:23.304Z,25.46
2023-05-22T12:51:27.153Z,24.88
2023-05-22T12:54:29.301Z,24.68
2023-05-22T12:57:31.668Z,24.75
2023-05-22T13:00:34.448Z,24.90
2023-05-22T13:03:36.688Z,25.12
2023-05-22T13:06:38.916Z,24.88
2023-05-22T13:09:41.762Z,24.83
2023-05-22T13:12:46.903Z,24.99
2023-05-22T13:15:49.327Z,25.33
2023-05-22T13:18:51.687Z,25.18
2023-05-22T13:21:53.910Z,25.40
2023-05-22T13:24:56.120Z,24.91
2023-05-22T13:27:59.720Z,25.32
2023-05-22T13:31:02.021Z,25.22
2023-05-22T13:34:04.693Z,25.20
2023-05-22T13:37:07.617Z,25.26
2023-05-22T13:40:10.135Z,25.31
2023-05-22T13:43:12.412Z,24.85
2023-05-22T13:46:14.847Z,24.57
2023-05-22T13:49:17.350Z,24.25
2023-05-22T13:52:19.609Z,24.25
2023-05-22T13:55:22.155Z,24.13
2023-05-22T13:58:24.374Z,24.28
2023-05-22T14:01:26.623Z,24.54
2023-05-22T14:04:29.000Z,24.74
2023-05-22T14:07:31.212Z,25.16
2023-05-22T14:10:34.591Z,25.30
2023-05-22T14:13:36.881Z,25.62
2023-05-22T14:16:39.441Z,25.71
2023-05-22T14:19:41.675Z,25.62
2023-05-22T14:22:56.322Z,25.82
2023-05-22T14:25:59.696Z,25.66
2023-05-22T14:29:01.877Z,25.74
2023-05-22T14:32:05.136Z,25.73
2023-05-22T14:35:07.800Z,25.47
2023-05-22T14:38:10.043Z,25.26
2023-05-22T14:41:12.760Z,25.21
2023-05-22T14:44:15.058Z,25.27
2023-05-22T14:47:17.259Z,25.43
2023-05-22T14:50:20.834Z,25.48
2023-05-22T14:53:23.438Z,25.61
2023-05-22T14:56:26.555Z,25.69
2023-05-22T14:59:28.783Z,25.54
2023-05-22T15:02:31.462Z,25.60
2023-05-22T15:05:33.839Z,25.77
2023-05-22T15:08:36.719Z,26.08
2023-05-22T15:11:39.064Z,25.77
2023-05-22T15:14:41.499Z,25.19
2023-05-22T15:17:43.797Z,25.20
2023-05-22T15:20:46.328Z,25.41
2023-05-22T15:23:48.607Z,25.39
2023-05-22T15:26:51.564Z,25.60
2023-05-22T15:29:53.779Z,25.58
2023-05-22T15:32:56.083Z,25.13
2023-05-22T15:35:58.344Z,24.82
2023-05-22T15:39:00.569Z,24.71
2023-05-22T15:42:06.795Z,24.82
2023-05-22T15:45:09.482Z,24.87
2023-05-22T15:48:12.550Z,24.86
2023-05-22T15:51:14.821Z,24.74
2023-05-22T15:54:17.437Z,24.65
2023-05-22T15:57:20.065Z,24.55
2023-05-22T16:00:22.488Z,24.50
2023-05-22T16:03:24.778Z,24.29
2023-05-22T16:06:28.538Z,24.31
2023-05-22T16:09:32.683Z,24.34
2023-05-22T16:12:35.094Z,24.29
2023-05-22T16:15:39.849Z,24.40
2023-05-22T16:18:42.373Z,24.24
2023-05-22T16:21:44.802Z,24.22
2023-05-22T16:24:47.204Z,24.17
2023-05-22T16:27:49.539Z,24.19
2023-05-22T16:30:51.821Z,24.21
2023-05-22T16:33:54.204Z,24.03
2023-05-22T16:36:56.438Z,24.03
2023-05-22T16:39:58.652Z,23.77
2023-05-22T16:43:01.067Z,23.89
2023-05-22T16:46:03.488Z,23.79
2023-05-22T16:49:05.845Z,23.67
2023-05-22T16:52:08.126Z,23.48
2023-05-22T16:55:10.617Z,23.22
2023-05-22T16:58:13.453Z,23.08
2023-05-22T17:01:16.016Z,22.94
2023-05-22T17:04:20.620Z,22.63
2023-05-22T17:07:23.502Z,22.46
2023-05-22T17:10:25.857Z,22.42
2023-05-22T17:13:28.147Z,22.43
2023-05-22T17:16:30.957Z,22.32
2023-05-22T17:19:33.320Z,22.09
2023-05-22T17:22:37.747Z,21.93
2023-05-22T17:25:40.146Z,21.82
2023-05-22T17:28:42.661Z,21.79
2023-05-22T17:31:44.923Z,21.79
2023-05-22T17:34:47.274Z,21.68
2023-05-22T17:37:49.458Z,21.42
2023-05-22T17:40:54.740Z,21.23
2023-05-22T17:44:00.720Z,21.11
2023-05-22T17:47:04.476Z,21.08
2023-05-22T17:50:07.411Z,20.99
2023-05-22T17:53:09.681Z,20.91
2023-05-22T17:56:11.968Z,20.93
2023-05-22T17:59:14.219Z,21.22
2023-05-22T18:02:16.418Z,21.24
2023-05-22T18:05:18.686Z,21.17
2023-05-22T18:08:21.582Z,20.95
2023-05-22T18:11:24.056Z,20.89
2023-05-22T18:14:26.875Z,20.55
2023-05-22T18:17:29.172Z,20.70
2023-05-22T18:20:33.119Z,20.60
2023-05-22T18:23:35.417Z,20.42
2023-05-22T18:26:37.641Z,20.16
2023-05-22T18:29:40.138Z,19.83
2023-05-22T18:32:42.461Z,19.93
2023-05-22T18:35:44.760Z,19.77
2023-05-22T18:38:47.098Z,19.66
2023-05-22T18:41:49.301Z,19.42
2023-05-22T18:44:51.680Z,19.55
2023-05-22T18:47:53.948Z,19.58
2023-05-22T18:50:57.663Z,19.45
2023-05-22T18:54:00.113Z,19.15
2023-05-22T18:57:02.323Z,18.83
2023-05-22T19:00:05.176Z,19.05
2023-05-22T19:03:11.268Z,18.98
2023-05-22T19:06:13.653Z,18.75
2023-05-22T19:09:16.623Z,18.59
2023-05-22T19:12:19.207Z,18.38
2023-05-22T19:15:21.716Z,18.54
2023-05-22T19:18:24.559Z,18.40
2023-05-22T19:21:26.864Z,18.36
2023-05-22T19:24:29.163Z,18.39
2023-05-22T19:27:31.452Z,17.96
2023-05-22T19:30:33.705Z,18.20
2023-05-22T19:33:35.928Z,18.07
2023-05-22T19:36:38.229Z,17.74
2023-05-22T19:39:40.673Z,17.85
2023-05-22T19:42:43.000Z,17.61
2023-05-22T19:45:45.733Z,17.51
2023-05-22T19:48:48.115Z,17.48
2023-05-22T19:51:50.497Z,17.08
2023-05-22T19:54:52.876Z,17.21
2023-05-22T19:57:55.082Z,17.18
2023-05-22T20:00:57.291Z,16.95
2023-05-22T20:04:01.052Z,16.84
2023-05-22T20:07:04.257Z,16.82
2023-05-22T20:10:07.086Z,16.64
2023-05-22T20:13:09.247Z,16.45
2023-05-22T20:16:12.884Z,16.43
2023-05-22T20:19:15.368Z,16.39
2023-05-22T20:22:17.661Z,16.35
2023-05-22T20:25:21.266Z,16.42
2023-05-22T20:28:23.509Z,16.69
2023-05-22T20:31:25.987Z,16.86
2023-05-22T20:34:28.577Z,16.73
2023-05-22T20:37:34.801Z,16.87
2023-05-22T20:40:37.755Z,16.84
2023-05-22T20:43:43.297Z,16.92
2023-05-22T20:46:45.844Z,16.89
2023-05-22T20:49:48.107Z,16.91
2023-05-22T20:52:50.465Z,16.82
2023-05-22T20:55:53.443Z,16.84
2023-05-22T20:58:56.665Z,16.77
2023-05-22T21:01:59.650Z,16.67
2023-05-22T21:05:03.361Z,16.65
2023-05-22T21:08:08.120Z,16.81
2023-05-22T21:11:10.463Z,16.51
2023-05-22T21:14:12.821Z,16.33
2023-05-22T21:17:15.127Z,16.15
2023-05-22T21:20:17.447Z,15.98
2023-05-22T21:23:19.676Z,16.03
2023-05-22T21:26:23.074Z,16.03
2023-05-22T21:29:25.527Z,15.97
2023-05-22T21:32:27.857Z,16.09
2023-05-22T21:35:30.081Z,16.19
2023-05-22T21:38:32.327Z,16.21
2023-05-22T21:41:34.756Z,15.94
2023-05-22T21:44:37.565Z,15.64
2023-05-22T21:47:39.830Z,15.95
2023-05-22T21:50:42.244Z,15.39
2023-05-22T21:53:44.591Z,15.30
2023-05-22T21:56:46.889Z,15.40
2023-05-22T21:59:50.812Z,15.41
2023-05-22T22:02:53.075Z,15.40
2023-05-22T22:05:55.369Z,15.31
2023-05-22T22:08:59.783Z,15.39
2023-05-22T22:12:02.032Z,15.56
2023-05-22T22:15:04.547Z,15.47
2023-05-22T22:18:06.847Z,15.39
2023-05-22T22:21:09.089Z,15.27
2023-05-22T22:24:11.708Z,15.01
2023-05-22T22:27:13.952Z,14.92
2023-05-22T22:30:16.300Z,14.96
2023-05-22T22:33:18.497Z,14.87
2023-05-22T22:36:21.020Z,14.86
2023-05-22T22:39:23.226Z,14.75
2023-05-22T22:42:26.610Z,14.79
2023-05-22T22:45:28.938Z,14.78
2023-05-22T22:48:31.176Z,14.58
2023-05-22T22:51:34.553Z,14.73
2023-05-22T22:54:36.814Z,14.68
2023-05-22T22:57:39.175Z,14.79
2023-05-22T23:00:41.462Z,14.88
2023-05-22T23:03:43.655Z,14.97
2023-05-22T23:06:46.148Z,15.12
2023-05-22T23:09:48.411Z,15.21
2023-05-22T23:12:50.716Z,15.29
2023-05-22T23:15:53.117Z,15.17
2023-05-22T23:18:55.418Z,14.81
2023-05-22T23:21:57.813Z,14.80
2023-05-22T23:25:00.116Z,14.75
2023-05-22T23:28:02.360Z,14.73
2023-05-22T23:31:04.580Z,14.77
2023-05-22T23:34:06.845Z,14.76
2023-05-22T23:37:09.155Z,14.86
2023-05-22T23:40:11.753Z,14.83
2023-05-22T23:43:13.941Z,14.81
2023-05-22T23:46:16.827Z,14.86
2023-05-22T23:49:19.089Z,14.91
2023-05-22T23:52:22.132Z,14.81
2023-05-22T23:55:24.377Z,14.76
2023-05-22T23:58:29.372Z,14.87
